Terminal Aerodrome Forecast
Issued by NWS Omaha/Valley, NE

Home | Current Version | Previous Version | Graphics & Text | Print | Product List | Glossary Off
Versions: 1 2 3 4 5 6 7 8 9 10 11 12 13 14 15 16 17 18 19 20 21 22 23 24 25 26 27 28 29

000
FTUS43 KOAX 031605 AAA
TAFOFK
TAF AMD
KOFK 031605Z 0316/0412 32022G35KT P6SM OVC015
     FM031700 34026G38KT P6SM OVC015
      TEMPO 0318/0321 BKN035
     FM032100 34022G32KT P6SM BKN035
     FM040300 34011KT P6SM SCT040 BKN150=

USA.gov is the U.S. government's official web portal to all federal, state and local government web resources and services.